sensor_id;sensor_type;location;lat;lon;timestamp;pressure;altitude;pressure_sealevel;temperature;humidity
46430;BME280;32131;53.454;-6.180;2022-08-27T00:00:53;102079.75;;;14.39;85.47
46430;BME280;32131;53.454;-6.180;2022-08-27T00:03:21;102068.38;;;14.36;85.54
46430;BME280;32131;53.454;-6.180;2022-08-27T00:05:51;102069.22;;;14.33;85.76
46430;BME280;32131;53.454;-6.180;2022-08-27T00:08:19;102069.16;;;14.30;85.95
46430;BME280;32131;53.454;-6.180;2022-08-27T00:10:52;102069.09;;;14.27;86.03
46430;BME280;32131;53.454;-6.180;2022-08-27T00:13:25;102079.41;;;14.24;86.01
46430;BME280;32131;53.454;-6.180;2022-08-27T00:15:54;102075.84;;;14.19;86.25
46430;BME280;32131;53.454;-6.180;2022-08-27T00:18:23;102073.13;;;14.12;86.42
46430;BME280;32131;53.454;-6.180;2022-08-27T00:20:53;102073.81;;;14.05;86.84
46430;BME280;32131;53.454;-6.180;2022-08-27T00:23:22;102078.06;;;14.02;87.21
46430;BME280;32131;53.454;-6.180;2022-08-27T00:25:52;102074.56;;;13.99;87.09
46430;BME280;32131;53.454;-6.180;2022-08-27T00:28:25;102068.34;;;13.93;87.50
46430;BME280;32131;53.454;-6.180;2022-08-27T00:30:55;102067.25;;;13.83;87.80
46430;BME280;32131;53.454;-6.180;2022-08-27T00:33:24;102068.91;;;13.79;87.86
46430;BME280;32131;53.454;-6.180;2022-08-27T00:36:00;102068.84;;;13.76;87.73
46430;BME280;32131;53.454;-6.180;2022-08-27T00:38:29;102078.25;;;13.71;87.89
46430;BME280;32131;53.454;-6.180;2022-08-27T00:40:57;102068.75;;;13.73;87.77
46430;BME280;32131;53.454;-6.180;2022-08-27T00:43:31;102067.91;;;13.74;87.40
46430;BME280;32131;53.454;-6.180;2022-08-27T00:46:18;102072.47;;;13.84;87.26
46430;BME280;32131;53.454;-6.180;2022-08-27T00:48:48;102067.50;;;13.94;86.75
46430;BME280;32131;53.454;-6.180;2022-08-27T00:51:17;102071.03;;;13.97;86.55
46430;BME280;32131;53.454;-6.180;2022-08-27T00:53:48;102074.56;;;13.99;86.32
46430;BME280;32131;53.454;-6.180;2022-08-27T00:56:20;102065.81;;;13.96;86.39
46430;BME280;32131;53.454;-6.180;2022-08-27T00:58:51;102070.81;;;13.88;86.51
46430;BME280;32131;53.454;-6.180;2022-08-27T01:01:22;102078.50;;;13.83;86.67
46430;BME280;32131;53.454;-6.180;2022-08-27T01:03:53;102070.59;;;13.77;86.97
46430;BME280;32131;53.454;-6.180;2022-08-27T01:06:25;102067.91;;;13.74;86.88
46430;BME280;32131;53.454;-6.180;2022-08-27T01:09:00;102071.34;;;13.73;86.93
46430;BME280;32131;53.454;-6.180;2022-08-27T01:11:30;102065.28;;;13.73;86.86
46430;BME280;32131;53.454;-6.180;2022-08-27T01:13:59;102062.66;;;13.71;86.94
46430;BME280;32131;53.454;-6.180;2022-08-27T01:16:31;102059.16;;;13.69;86.99
46430;BME280;32131;53.454;-6.180;2022-08-27T01:19:03;102051.34;;;13.67;86.75
46430;BME280;32131;53.454;-6.180;2022-08-27T01:21:41;102055.59;;;13.64;86.82
46430;BME280;32131;53.454;-6.180;2022-08-27T01:24:29;102053.66;;;13.57;86.83
46430;BME280;32131;53.454;-6.180;2022-08-27T01:26:59;102056.19;;;13.54;86.94
46430;BME280;32131;53.454;-6.180;2022-08-27T01:29:29;102051.75;;;13.49;86.89
46430;BME280;32131;53.454;-6.180;2022-08-27T01:32:05;102055.03;;;13.42;87.10
46430;BME280;32131;53.454;-6.180;2022-08-27T01:34:37;102052.28;;;13.36;87.10
46430;BME280;32131;53.454;-6.180;2022-08-27T01:37:06;102047.84;;;13.32;87.12
46430;BME280;32131;53.454;-6.180;2022-08-27T01:39:37;102052.06;;;13.28;87.20
46430;BME280;32131;53.454;-6.180;2022-08-27T01:42:08;102057.19;;;13.25;87.36
46430;BME280;32131;53.454;-6.180;2022-08-27T01:44:43;102051.81;;;13.19;87.50
46430;BME280;32131;53.454;-6.180;2022-08-27T01:47:12;102051.78;;;13.16;87.55
46430;BME280;32131;53.454;-6.180;2022-08-27T01:49:40;102054.25;;;13.11;87.68
46430;BME280;32131;53.454;-6.180;2022-08-27T01:52:09;102049.91;;;13.10;87.70
46430;BME280;32131;53.454;-6.180;2022-08-27T01:54:41;102063.66;;;13.08;87.89
46430;BME280;32131;53.454;-6.180;2022-08-27T01:57:09;102056.69;;;13.05;87.54
46430;BME280;32131;53.454;-6.180;2022-08-27T01:59:37;102052.38;;;13.05;87.66
46430;BME280;32131;53.454;-6.180;2022-08-27T02:02:06;102059.28;;;13.05;87.56
46430;BME280;32131;53.454;-6.180;2022-08-27T02:04:35;102055.75;;;13.03;87.83
46430;BME280;32131;53.454;-6.180;2022-08-27T02:07:04;102058.34;;;13.03;87.73
46430;BME280;32131;53.454;-6.180;2022-08-27T02:09:32;102054.84;;;13.01;87.73
46430;BME280;32131;53.454;-6.180;2022-08-27T02:12:02;102050.44;;;12.98;87.81
46430;BME280;32131;53.454;-6.180;2022-08-27T02:14:31;102053.75;;;12.93;87.74
46430;BME280;32131;53.454;-6.180;2022-08-27T02:16:59;102054.47;;;12.87;87.85
46430;BME280;32131;53.454;-6.180;2022-08-27T02:19:27;102061.91;;;12.74;88.50
46430;BME280;32131;53.454;-6.180;2022-08-27T02:21:56;102056.34;;;12.61;88.84
46430;BME280;32131;53.454;-6.180;2022-08-27T02:24:26;102053.50;;;12.51;89.23
46430;BME280;32131;53.454;-6.180;2022-08-27T02:26:55;102050.75;;;12.45;89.29
46430;BME280;32131;53.454;-6.180;2022-08-27T02:29:25;102055.78;;;12.40;89.28
46430;BME280;32131;53.454;-6.180;2022-08-27T02:31:53;102051.41;;;12.38;89.19
46430;BME280;32131;53.454;-6.180;2022-08-27T02:34:21;102052.09;;;12.32;89.10
46430;BME280;32131;53.454;-6.180;2022-08-27T02:36:49;102053.72;;;12.29;89.39
46430;BME280;32131;53.454;-6.180;2022-08-27T02:39:18;102040.69;;;12.27;89.30
46430;BME280;32131;53.454;-6.180;2022-08-27T02:41:46;102047.66;;;12.28;89.31
46430;BME280;32131;53.454;-6.180;2022-08-27T02:44:15;102047.72;;;12.30;89.19
46430;BME280;32131;53.454;-6.180;2022-08-27T02:46:44;102049.50;;;12.32;88.88
46430;BME280;32131;53.454;-6.180;2022-08-27T02:49:17;102057.28;;;12.32;88.89
46430;BME280;32131;53.454;-6.180;2022-08-27T02:51:45;102048.59;;;12.32;88.59
46430;BME280;32131;53.454;-6.180;2022-08-27T02:54:15;102045.13;;;12.30;88.57
46430;BME280;32131;53.454;-6.180;2022-08-27T02:56:43;102045.06;;;12.28;88.40
46430;BME280;32131;53.454;-6.180;2022-08-27T02:59:11;102043.13;;;12.21;88.52
46430;BME280;32131;53.454;-6.180;2022-08-27T03:01:40;102040.28;;;12.13;88.82
46430;BME280;32131;53.454;-6.180;2022-08-27T03:04:10;102046.22;;;12.09;88.46
46430;BME280;32131;53.454;-6.180;2022-08-27T03:06:40;102052.22;;;12.08;88.46
46430;BME280;32131;53.454;-6.180;2022-08-27T03:09:08;102058.19;;;12.05;88.25
46430;BME280;32131;53.454;-6.180;2022-08-27T03:11:37;102050.31;;;12.02;88.33
46430;BME280;32131;53.454;-6.180;2022-08-27T03:14:05;102046.78;;;11.99;88.28
46430;BME280;32131;53.454;-6.180;2022-08-27T03:16:33;102048.41;;;11.96;88.23
46430;BME280;32131;53.454;-6.180;2022-08-27T03:19:02;102047.50;;;11.94;88.36
46430;BME280;32131;53.454;-6.180;2022-08-27T03:21:34;102045.72;;;11.93;88.15
46430;BME280;32131;53.454;-6.180;2022-08-27T03:24:04;102039.63;;;11.91;88.14
46430;BME280;32131;53.454;-6.180;2022-08-27T03:26:37;102043.00;;;11.89;88.03
46430;BME280;32131;53.454;-6.180;2022-08-27T03:29:05;102041.25;;;11.88;88.15
46430;BME280;32131;53.454;-6.180;2022-08-27T03:31:35;102048.22;;;11.90;87.89
46430;BME280;32131;53.454;-6.180;2022-08-27T03:34:04;102043.88;;;11.89;87.81
46430;BME280;32131;53.454;-6.180;2022-08-27T03:36:36;102048.19;;;11.89;87.83
46430;BME280;32131;53.454;-6.180;2022-08-27T03:39:05;102048.97;;;11.86;87.66
46430;BME280;32131;53.454;-6.180;2022-08-27T03:41:33;102041.84;;;11.79;87.89
46430;BME280;32131;53.454;-6.180;2022-08-27T03:44:20;102041.63;;;11.73;87.69
46430;BME280;32131;53.454;-6.180;2022-08-27T03:46:49;102045.84;;;11.69;87.77
46430;BME280;32131;53.454;-6.180;2022-08-27T03:49:18;102048.34;;;11.66;87.85
46430;BME280;32131;53.454;-6.180;2022-08-27T03:51:50;102048.28;;;11.64;87.77
46430;BME280;32131;53.454;-6.180;2022-08-27T03:54:18;102051.78;;;11.67;87.74
46430;BME280;32131;53.454;-6.180;2022-08-27T03:56:46;102050.22;;;11.72;87.54
46430;BME280;32131;53.454;-6.180;2022-08-27T03:59:15;102044.34;;;11.76;87.40
46430;BME280;32131;53.454;-6.180;2022-08-27T04:01:45;102046.16;;;11.80;87.26
46430;BME280;32131;53.454;-6.180;2022-08-27T04:04:14;102036.69;;;11.79;87.04
46430;BME280;32131;53.454;-6.180;2022-08-27T04:06:42;102054.72;;;11.77;86.85
46430;BME280;32131;53.454;-6.180;2022-08-27T04:09:12;102046.91;;;11.76;86.90
46430;BME280;32131;53.454;-6.180;2022-08-27T04:11:40;102048.56;;;11.74;86.98
46430;BME280;32131;53.454;-6.180;2022-08-27T04:14:09;102051.00;;;11.69;87.05
46430;BME280;32131;53.454;-6.180;2022-08-27T04:16:53;102053.56;;;11.68;86.92
46430;BME280;32131;53.454;-6.180;2022-08-27T04:19:22;102051.91;;;11.70;86.65
46430;BME280;32131;53.454;-6.180;2022-08-27T04:21:57;102052.78;;;11.70;86.61
46430;BME280;32131;53.454;-6.180;2022-08-27T04:24:29;102046.63;;;11.67;86.48
46430;BME280;32131;53.454;-6.180;2022-08-27T04:26:57;102047.38;;;11.62;86.50
46430;BME280;32131;53.454;-6.180;2022-08-27T04:29:26;102034.44;;;11.62;86.50
46430;BME280;32131;53.454;-6.180;2022-08-27T04:31:54;102034.44;;;11.62;86.64
46430;BME280;32131;53.454;-6.180;2022-08-27T04:34:23;102030.13;;;11.63;86.58
46430;BME280;32131;53.454;-6.180;2022-08-27T04:36:54;102032.69;;;11.61;86.69
46430;BME280;32131;53.454;-6.180;2022-08-27T04:39:23;102034.31;;;11.59;86.51
46430;BME280;32131;53.454;-6.180;2022-08-27T04:41:55;102023.22;;;11.63;86.31
46430;BME280;32131;53.454;-6.180;2022-08-27T04:44:26;102017.22;;;11.64;86.28
46430;BME280;32131;53.454;-6.180;2022-08-27T04:46:54;102024.16;;;11.66;86.10
46430;BME280;32131;53.454;-6.180;2022-08-27T04:49:24;102027.53;;;11.63;85.85
46430;BME280;32131;53.454;-6.180;2022-08-27T04:51:53;102024.91;;;11.61;85.94
46430;BME280;32131;53.454;-6.180;2022-08-27T04:54:22;102030.13;;;11.63;86.17
46430;BME280;32131;53.454;-6.180;2022-08-27T04:57:00;102023.31;;;11.65;85.85
46430;BME280;32131;53.454;-6.180;2022-08-27T04:59:32;102037.13;;;11.67;85.96
46430;BME280;32131;53.454;-6.180;2022-08-27T05:02:01;102032.88;;;11.68;85.97
46430;BME280;32131;53.454;-6.180;2022-08-27T05:04:30;102033.84;;;11.71;85.80
46430;BME280;32131;53.454;-6.180;2022-08-27T05:06:59;102024.34;;;11.72;85.53
46430;BME280;32131;53.454;-6.180;2022-08-27T05:09:28;102021.75;;;11.72;85.53
46430;BME280;32131;53.454;-6.180;2022-08-27T05:11:56;102023.75;;;11.79;85.58
46430;BME280;32131;53.454;-6.180;2022-08-27T05:14:25;102019.56;;;11.84;85.18
46430;BME280;32131;53.454;-6.180;2022-08-27T05:16:56;102017.94;;;11.88;85.17
46430;BME280;32131;53.454;-6.180;2022-08-27T05:19:25;102012.78;;;11.88;85.33
46430;BME280;32131;53.454;-6.180;2022-08-27T05:21:53;102021.50;;;11.91;85.18
46430;BME280;32131;53.454;-6.180;2022-08-27T05:24:22;102020.78;;;11.95;85.09
46430;BME280;32131;53.454;-6.180;2022-08-27T05:26:51;102026.16;;;12.02;84.84
46430;BME280;32131;53.454;-6.180;2022-08-27T05:29:20;102022.06;;;12.08;84.64
46430;BME280;32131;53.454;-6.180;2022-08-27T05:31:49;102023.06;;;12.14;84.51
46430;BME280;32131;53.454;-6.180;2022-08-27T05:34:17;102028.38;;;12.18;84.22
46430;BME280;32131;53.454;-6.180;2022-08-27T05:36:53;102034.50;;;12.20;84.27
46430;BME280;32131;53.454;-6.180;2022-08-27T05:39:21;102033.63;;;12.21;84.05
46430;BME280;32131;53.454;-6.180;2022-08-27T05:41:49;102039.66;;;12.20;84.21
46430;BME280;32131;53.454;-6.180;2022-08-27T05:44:19;102028.25;;;12.14;84.26
46430;BME280;32131;53.454;-6.180;2022-08-27T05:47:08;102030.94;;;12.17;84.32
46430;BME280;32131;53.454;-6.180;2022-08-27T05:49:37;102031.94;;;12.22;83.97
46430;BME280;32131;53.454;-6.180;2022-08-27T05:52:07;102027.88;;;12.32;83.86
46430;BME280;32131;53.454;-6.180;2022-08-27T05:54:36;102030.00;;;12.45;83.36
46430;BME280;32131;53.454;-6.180;2022-08-27T05:57:05;102036.34;;;12.56;83.04
46430;BME280;32131;53.454;-6.180;2022-08-27T05:59:34;102040.00;;;12.63;82.75
46430;BME280;32131;53.454;-6.180;2022-08-27T06:02:21;102032.44;;;12.71;82.56
46430;BME280;32131;53.454;-6.180;2022-08-27T06:04:49;102045.47;;;12.74;82.53
46430;BME280;32131;53.454;-6.180;2022-08-27T06:07:19;102044.66;;;12.77;82.28
46430;BME280;32131;53.454;-6.180;2022-08-27T06:09:47;102054.16;;;12.74;82.34
46430;BME280;32131;53.454;-6.180;2022-08-27T06:12:15;102040.28;;;12.74;82.39
46430;BME280;32131;53.454;-6.180;2022-08-27T06:14:43;102042.09;;;12.77;82.31
46430;BME280;32131;53.454;-6.180;2022-08-27T06:17:11;102037.81;;;12.79;82.23
46430;BME280;32131;53.454;-6.180;2022-08-27T06:19:41;102041.53;;;12.88;81.93
46430;BME280;32131;53.454;-6.180;2022-08-27T06:22:11;102039.28;;;13.01;81.69
46430;BME280;32131;53.454;-6.180;2022-08-27T06:24:41;102047.38;;;13.13;81.47
46430;BME280;32131;53.454;-6.180;2022-08-27T06:27:11;102049.34;;;13.24;81.06
46430;BME280;32131;53.454;-6.180;2022-08-27T06:29:41;102040.97;;;13.34;80.77
46430;BME280;32131;53.454;-6.180;2022-08-27T06:32:11;102033.44;;;13.43;80.60
46430;BME280;32131;53.454;-6.180;2022-08-27T06:34:41;102046.03;;;13.63;80.10
46430;BME280;32131;53.454;-6.180;2022-08-27T06:37:10;102047.34;;;13.83;79.50
46430;BME280;32131;53.454;-6.180;2022-08-27T06:39:38;102047.13;;;14.12;78.70
46430;BME280;32131;53.454;-6.180;2022-08-27T06:42:09;102039.75;;;14.31;78.21
46430;BME280;32131;53.454;-6.180;2022-08-27T06:44:39;102046.94;;;14.44;77.82
46430;BME280;32131;53.454;-6.180;2022-08-27T06:47:07;102041.84;;;14.51;77.51
46430;BME280;32131;53.454;-6.180;2022-08-27T06:49:39;102052.50;;;14.63;77.21
46430;BME280;32131;53.454;-6.180;2022-08-27T06:52:14;102048.38;;;14.73;76.93
46430;BME280;32131;53.454;-6.180;2022-08-27T06:54:42;102050.22;;;14.78;76.55
46430;BME280;32131;53.454;-6.180;2022-08-27T06:57:11;102047.81;;;14.88;76.37
46430;BME280;32131;53.454;-6.180;2022-08-27T06:59:39;102044.47;;;14.95;76.08
46430;BME280;32131;53.454;-6.180;2022-08-27T07:02:07;102047.13;;;14.98;75.88
46430;BME280;32131;53.454;-6.180;2022-08-27T07:04:35;102052.38;;;15.01;75.83
46430;BME280;32131;53.454;-6.180;2022-08-27T07:07:04;102058.53;;;15.06;75.70
46430;BME280;32131;53.454;-6.180;2022-08-27T07:09:33;102055.03;;;15.06;75.66
46430;BME280;32131;53.454;-6.180;2022-08-27T07:12:02;102064.59;;;15.07;75.67
46430;BME280;32131;53.454;-6.180;2022-08-27T07:14:31;102062.00;;;15.05;75.69
46430;BME280;32131;53.454;-6.180;2022-08-27T07:17:05;102059.31;;;15.01;75.87
46430;BME280;32131;53.454;-6.180;2022-08-27T07:19:42;102065.25;;;14.95;76.05
46430;BME280;32131;53.454;-6.180;2022-08-27T07:22:11;102069.72;;;15.02;75.97
46430;BME280;32131;53.454;-6.180;2022-08-27T07:24:41;102070.72;;;15.09;75.83
46430;BME280;32131;53.454;-6.180;2022-08-27T07:27:09;102074.19;;;15.11;75.65
46430;BME280;32131;53.454;-6.180;2022-08-27T07:29:38;102079.44;;;15.13;75.53
46430;BME280;32131;53.454;-6.180;2022-08-27T07:32:07;102081.31;;;15.20;75.52
46430;BME280;32131;53.454;-6.180;2022-08-27T07:34:37;102084.84;;;15.25;75.20
46430;BME280;32131;53.454;-6.180;2022-08-27T07:37:08;102086.63;;;15.26;75.23
46430;BME280;32131;53.454;-6.180;2022-08-27T07:39:40;102083.19;;;15.29;75.30
46430;BME280;32131;53.454;-6.180;2022-08-27T07:42:11;102086.69;;;15.29;75.19
46430;BME280;32131;53.454;-6.180;2022-08-27T07:45:01;102077.94;;;15.25;75.25
46430;BME280;32131;53.454;-6.180;2022-08-27T07:47:31;102082.22;;;15.22;75.56
46430;BME280;32131;53.454;-6.180;2022-08-27T07:50:01;102084.06;;;15.28;75.58
46430;BME280;32131;53.454;-6.180;2022-08-27T07:52:29;102085.09;;;15.37;75.23
46430;BME280;32131;53.454;-6.180;2022-08-27T07:54:58;102079.13;;;15.46;74.78
46430;BME280;32131;53.454;-6.180;2022-08-27T07:57:27;102084.63;;;15.63;74.47
46430;BME280;32131;53.454;-6.180;2022-08-27T08:00:07;102079.69;;;15.80;74.13
46430;BME280;32131;53.454;-6.180;2022-08-27T08:02:39;102081.66;;;15.94;73.68
46430;BME280;32131;53.454;-6.180;2022-08-27T08:05:18;102080.81;;;15.96;73.37
46430;BME280;32131;53.454;-6.180;2022-08-27T08:07:59;102082.44;;;15.88;73.73
46430;BME280;32131;53.454;-6.180;2022-08-27T08:10:29;102077.22;;;15.86;73.68
46430;BME280;32131;53.454;-6.180;2022-08-27T08:13:01;102074.78;;;15.99;73.57
46430;BME280;32131;53.454;-6.180;2022-08-27T08:15:32;102075.78;;;16.09;73.27
46430;BME280;32131;53.454;-6.180;2022-08-27T08:18:00;102081.22;;;16.24;72.94
46430;BME280;32131;53.454;-6.180;2022-08-27T08:20:29;102073.75;;;17.37;69.79
46430;BME280;32131;53.454;-6.180;2022-08-27T08:23:18;102083.28;;;18.84;66.37
46430;BME280;32131;53.454;-6.180;2022-08-27T08:25:48;102080.69;;;20.04;64.07
46430;BME280;32131;53.454;-6.180;2022-08-27T08:28:17;102077.56;;;21.11;61.97
46430;BME280;32131;53.454;-6.180;2022-08-27T08:30:45;102076.59;;;22.14;60.38
46430;BME280;32131;53.454;-6.180;2022-08-27T08:33:13;102067.53;;;23.01;58.28
46430;BME280;32131;53.454;-6.180;2022-08-27T08:35:43;102065.25;;;23.84;56.23
46430;BME280;32131;53.454;-6.180;2022-08-27T08:38:11;102063.50;;;24.70;54.51
46430;BME280;32131;53.454;-6.180;2022-08-27T08:40:46;102074.88;;;25.47;52.70
46430;BME280;32131;53.454;-6.180;2022-08-27T08:43:28;102075.78;;;25.79;51.24
46430;BME280;32131;53.454;-6.180;2022-08-27T08:46:05;102077.47;;;25.82;49.84
46430;BME280;32131;53.454;-6.180;2022-08-27T08:48:39;102064.31;;;25.47;49.35
46430;BME280;32131;53.454;-6.180;2022-08-27T08:51:22;102075.66;;;24.78;50.15
46430;BME280;32131;53.454;-6.180;2022-08-27T08:53:55;102080.41;;;23.73;51.11
46430;BME280;32131;53.454;-6.180;2022-08-27T08:56:29;102087.94;;;22.87;52.33
46430;BME280;32131;53.454;-6.180;2022-08-27T08:59:02;102083.59;;;22.14;53.72
46430;BME280;32131;53.454;-6.180;2022-08-27T09:01:35;102077.25;;;21.48;54.91
46430;BME280;32131;53.454;-6.180;2022-08-27T09:04:08;102078.38;;;21.19;55.06
46430;BME280;32131;53.454;-6.180;2022-08-27T09:06:40;102082.19;;;20.61;56.28
46430;BME280;32131;53.454;-6.180;2022-08-27T09:09:17;102081.56;;;19.98;57.86
46430;BME280;32131;53.454;-6.180;2022-08-27T09:11:54;102079.88;;;19.51;58.66
46430;BME280;32131;53.454;-6.180;2022-08-27T09:14:34;102091.19;;;19.19;59.24
46430;BME280;32131;53.454;-6.180;2022-08-27T09:17:04;102090.22;;;18.76;59.93
46430;BME280;32131;53.454;-6.180;2022-08-27T09:19:37;102091.00;;;18.49;60.71
46430;BME280;32131;53.454;-6.180;2022-08-27T09:22:13;102090.03;;;18.23;61.18
46430;BME280;32131;53.454;-6.180;2022-08-27T09:24:52;102095.16;;;18.05;61.54
46430;BME280;32131;53.454;-6.180;2022-08-27T09:27:23;102095.13;;;18.02;61.75
46430;BME280;32131;53.454;-6.180;2022-08-27T09:29:55;102097.72;;;17.99;62.05
46430;BME280;32131;53.454;-6.180;2022-08-27T09:32:26;102099.34;;;17.89;62.19
46430;BME280;32131;53.454;-6.180;2022-08-27T09:34:57;102104.59;;;17.86;62.53
46430;BME280;32131;53.454;-6.180;2022-08-27T09:37:28;102102.00;;;17.92;62.23
46430;BME280;32131;53.454;-6.180;2022-08-27T09:40:06;102102.00;;;17.94;62.31
46430;BME280;32131;53.454;-6.180;2022-08-27T09:42:50;102098.69;;;18.13;61.95
46430;BME280;32131;53.454;-6.180;2022-08-27T09:45:23;102105.69;;;18.20;61.81
46430;BME280;32131;53.454;-6.180;2022-08-27T09:47:54;102102.22;;;18.28;61.70
46430;BME280;32131;53.454;-6.180;2022-08-27T09:50:35;102100.53;;;18.36;61.27
46430;BME280;32131;53.454;-6.180;2022-08-27T09:53:17;102092.75;;;18.51;61.10
46430;BME280;32131;53.454;-6.180;2022-08-27T09:55:49;102097.16;;;18.65;60.43
46430;BME280;32131;53.454;-6.180;2022-08-27T09:58:23;102100.69;;;18.84;59.81
46430;BME280;32131;53.454;-6.180;2022-08-27T10:01:00;102092.09;;;19.24;58.89
46430;BME280;32131;53.454;-6.180;2022-08-27T10:03:29;102090.31;;;19.64;57.88
46430;BME280;32131;53.454;-6.180;2022-08-27T10:05:59;102085.88;;;20.11;56.09
46430;BME280;32131;53.454;-6.180;2022-08-27T10:08:37;102088.56;;;19.87;56.40
46430;BME280;32131;53.454;-6.180;2022-08-27T10:11:09;102087.69;;;19.83;56.51
46430;BME280;32131;53.454;-6.180;2022-08-27T10:13:42;102078.97;;;19.87;55.78
46430;BME280;32131;53.454;-6.180;2022-08-27T10:16:31;102092.91;;;19.83;56.17
46430;BME280;32131;53.454;-6.180;2022-08-27T10:19:12;102086.81;;;19.98;55.93
46430;BME280;32131;53.454;-6.180;2022-08-27T10:21:46;102081.53;;;20.14;55.63
46430;BME280;32131;53.454;-6.180;2022-08-27T10:24:22;102079.69;;;20.37;54.84
46430;BME280;32131;53.454;-6.180;2022-08-27T10:27:05;102076.09;;;20.54;53.64
46430;BME280;32131;53.454;-6.180;2022-08-27T10:29:42;102077.81;;;20.61;53.54
46430;BME280;32131;53.454;-6.180;2022-08-27T10:32:29;102082.25;;;20.50;53.13
46430;BME280;32131;53.454;-6.180;2022-08-27T10:35:11;102087.53;;;20.44;53.22
46430;BME280;32131;53.454;-6.180;2022-08-27T10:37:51;102087.56;;;20.39;53.64
46430;BME280;32131;53.454;-6.180;2022-08-27T10:40:28;102087.44;;;20.61;53.02
46430;BME280;32131;53.454;-6.180;2022-08-27T10:43:08;102081.28;;;20.71;52.77
46430;BME280;32131;53.454;-6.180;2022-08-27T10:45:46;102081.22;;;20.85;52.05
46430;BME280;32131;53.454;-6.180;2022-08-27T10:48:34;102079.38;;;21.02;51.75
46430;BME280;32131;53.454;-6.180;2022-08-27T10:51:15;102074.97;;;21.06;51.49
46430;BME280;32131;53.454;-6.180;2022-08-27T10:53:56;102070.56;;;21.08;51.29
46430;BME280;32131;53.454;-6.180;2022-08-27T10:56:32;102067.00;;;21.14;50.88
46430;BME280;32131;53.454;-6.180;2022-08-27T10:59:18;102067.00;;;21.17;51.02
46430;BME280;32131;53.454;-6.180;2022-08-27T11:01:58;102057.31;;;21.22;50.74
46430;BME280;32131;53.454;-6.180;2022-08-27T11:05:08;102063.47;;;21.23;50.19
46430;BME280;32131;53.454;-6.180;2022-08-27T11:07:43;102058.13;;;21.32;49.83
46430;BME280;32131;53.454;-6.180;2022-08-27T11:10:28;102061.47;;;21.48;49.98
46430;BME280;32131;53.454;-6.180;2022-08-27T11:13:16;102065.69;;;21.69;49.90
46430;BME280;32131;53.454;-6.180;2022-08-27T11:15:55;102070.00;;;21.78;49.23
46430;BME280;32131;53.454;-6.180;2022-08-27T11:18:33;102071.59;;;21.91;49.44
46430;BME280;32131;53.454;-6.180;2022-08-27T11:21:14;102068.94;;;21.93;49.55
46430;BME280;32131;53.454;-6.180;2022-08-27T11:23:45;102067.09;;;22.01;49.66
46430;BME280;32131;53.454;-6.180;2022-08-27T11:26:15;102068.94;;;21.93;49.57
46430;BME280;32131;53.454;-6.180;2022-08-27T11:28:53;102063.56;;;22.05;49.60
46430;BME280;32131;53.454;-6.180;2022-08-27T11:35:59;102058.94;;;22.24;48.22
46430;BME280;32131;53.454;-6.180;2022-08-27T11:43:08;102053.16;;;22.65;47.44
46430;BME280;32131;53.454;-6.180;2022-08-27T11:46:48;102062.81;;;22.63;46.68
46430;BME280;32131;53.454;-6.180;2022-08-27T11:49:54;102055.63;;;22.75;47.18
46430;BME280;32131;53.454;-6.180;2022-08-27T11:56:40;102060.13;;;22.67;46.65
46430;BME280;32131;53.454;-6.180;2022-08-27T12:07:19;102052.41;;;23.14;46.48
46430;BME280;32131;53.454;-6.180;2022-08-27T12:17:39;102050.16;;;22.89;46.62
46430;BME280;32131;53.454;-6.180;2022-08-27T12:20:23;102051.91;;;22.90;46.70
46430;BME280;32131;53.454;-6.180;2022-08-27T12:23:41;102057.22;;;22.87;47.34
46430;BME280;32131;53.454;-6.180;2022-08-27T12:26:40;102050.09;;;22.96;46.27
46430;BME280;32131;53.454;-6.180;2022-08-27T12:29:27;102046.34;;;23.09;46.78
46430;BME280;32131;53.454;-6.180;2022-08-27T12:32:25;102057.72;;;23.09;46.55
46430;BME280;32131;53.454;-6.180;2022-08-27T12:37:08;102062.03;;;23.15;46.56
46430;BME280;32131;53.454;-6.180;2022-08-27T12:38:48;102069.88;;;23.21;46.49
46430;BME280;32131;53.454;-6.180;2022-08-27T12:42:10;102055.84;;;23.21;46.45
46430;BME280;32131;53.454;-6.180;2022-08-27T14:03:29;102027.03;;;23.60;42.84
46430;BME280;32131;53.454;-6.180;2022-08-27T14:14:42;102037.66;;;23.57;45.21
46430;BME280;32131;53.454;-6.180;2022-08-27T14:24:55;102037.00;;;23.44;45.76
46430;BME280;32131;53.454;-6.180;2022-08-27T14:31:42;102043.28;;;23.35;45.14
46430;BME280;32131;53.454;-6.180;2022-08-27T14:57:13;102025.53;;;22.92;44.94
46430;BME280;32131;53.454;-6.180;2022-08-27T15:00:54;102035.34;;;22.82;44.48
46430;BME280;32131;53.454;-6.180;2022-08-27T15:04:15;102034.28;;;22.96;44.74
46430;BME280;32131;53.454;-6.180;2022-08-27T15:07:10;102037.72;;;22.99;44.60
46430;BME280;32131;53.454;-6.180;2022-08-27T15:30:02;102030.44;;;23.15;43.51
46430;BME280;32131;53.454;-6.180;2022-08-27T15:32:42;102034.84;;;23.13;43.38
46430;BME280;32131;53.454;-6.180;2022-08-27T16:21:03;102036.19;;;23.39;44.22
46430;BME280;32131;53.454;-6.180;2022-08-27T16:23:34;102037.16;;;23.35;44.00
46430;BME280;32131;53.454;-6.180;2022-08-27T16:26:07;102037.47;;;23.15;43.55
46430;BME280;32131;53.454;-6.180;2022-08-27T16:28:35;102032.41;;;23.02;44.11
46430;BME280;32131;53.454;-6.180;2022-08-27T16:31:07;102038.44;;;23.09;44.00
46430;BME280;32131;53.454;-6.180;2022-08-27T16:45:47;102037.13;;;22.80;44.27
46430;BME280;32131;53.454;-6.180;2022-08-27T16:48:36;102041.81;;;22.61;44.50
46430;BME280;32131;53.454;-6.180;2022-08-27T16:51:33;102043.78;;;22.47;44.64
46430;BME280;32131;53.454;-6.180;2022-08-27T16:54:08;102040.41;;;22.34;44.86
46430;BME280;32131;53.454;-6.180;2022-08-27T16:56:37;102039.78;;;22.14;45.43
46430;BME280;32131;53.454;-6.180;2022-08-27T16:59:08;102039.06;;;22.00;45.44
46430;BME280;32131;53.454;-6.180;2022-08-27T17:01:50;102041.72;;;21.95;45.64
46430;BME280;32131;53.454;-6.180;2022-08-27T17:04:29;102032.06;;;21.97;46.04